Hauptseite
METAR-TAF:

METAR-TAF

Flughäfen :

Mitiga International Airport

Tripolis, Libyen

Breite: 32-54N, Länge: 13-17E, Höhe: 11 m

Beobachtung

Neuester Wetterbericht von vor 1 Stunde und 3 Minuten, um 07:50 UTC
Wind 9 kt aus Ost
Temperatur 29°C
Luftfeuchtigkeit 66%
Luftdruck 1015 hPa
Sichtweite: 7000 m
Aufgelockert bewölkt in der Höhe von 3000 ft

METAR: HLLM 170750Z 08009KT 7000 SCT030 29/22 Q1015

Zeit: 10:53 (08:53 UTC)

Prognose

Neuester Wetterbericht von vor 27 Stunden und 53 Minuten, um 05:00 UTC
Gültige Prognose vom 16 um 06 UTC bis 17 um 06 UTC
Wind 10 kt aus Ost
Sichtweite 10 km oder mehr
Leicht bewölkt in der Höhe von 2500 ft
Übergehend zu
vom 16 um 10 UTC bis 16 um 12 UTC
Wind 15 kt aus Nord/Nordost
Übergehend zu
vom 17 um 00 UTC bis 17 um 02 UTC
Wind 10 kt aus Ost

TAF: HLLM 160500Z 1606/1706 09010KT 9999 FEW025 BECMG 1610/1612 03015KT BECMG 1700/1702 10010KT

Wetterbeobachtungen und Prognosen von mehr als 4000 Flughäfen (METAR und TAF Bericht).

Die verfügbaren Stationen werden durch gelbe und rote Markierungen auf der Karte dargestellt.

Führen Sie die Maus auf sie, um den Namen der Station zu sehen.

Darauf klicken, um die Beobachtung von Wetterbeobachtungen und Prognosen zu sehen.

Um die Karte zu ändern : klicken Sie auf den grünen Tasten mit einem schwarzen Kreuz Zum Vergrößern, auf den grünen Button mit einem Gedankenstrich zu verkleinern, oder auf die grünen Pfeile für benachbarte Karten.


METAR-TAF: